Flight Track Log - Related Links

Times and Time Zones

All times are in EDT time to prevent confusion due to time zone crossing. See the TAM3766 flight status page for this flight to view local times or setup timezone preferences in your user account.

Time Position Orientation Groundspeed Altitude Reporting Facility
EDT Latitude Longitude Course Direction KTS MPH feet Rate Location/Type
Wed 11:47:32 AM -21.2725 -44.7167 319° Northwest  Level Estimated
Wed 11:48:32 AM -21.1892 -44.7953 319° Northwest  Level Estimated
Wed 11:49:32 AM -21.1059 -44.8738 319° Northwest  Level Estimated
Wed 11:50:32 AM -21.0226 -44.9522 319° Northwest  Level Estimated
Wed 11:51:32 AM -20.9392 -45.0306 319° Northwest  Level Estimated
Wed 11:52:32 AM -20.8558 -45.1088 319° Northwest  Level Estimated
Wed 11:53:32 AM -20.7723 -45.1870 319° Northwest  Level Estimated
Wed 11:54:32 AM -20.6889 -45.2650 319° Northwest  Level Estimated
Wed 11:55:32 AM -20.6053 -45.3430 319° Northwest  Level Estimated
Wed 11:56:32 AM -20.5218 -45.4209 319° Northwest  Level Estimated
Wed 11:57:32 AM -20.4382 -45.4987 319° Northwest  Level Estimated
Wed 11:58:32 AM -20.3546 -45.5764 319° Northwest  Level Estimated
Wed 11:59:32 AM -20.2709 -45.6540 319° Northwest  Level Estimated
Wed 12:00:32 PM -20.1872 -45.7316 319° Northwest  Level Estimated
Wed 12:01:32 PM -20.1035 -45.8091 319° Northwest  Level Estimated
Wed 12:02:32 PM -20.0197 -45.8865 319° Northwest  Level Estimated
Wed 12:03:32 PM -19.9359 -45.9638 319° Northwest  Level Estimated
Wed 12:04:32 PM -19.8521 -46.0410 319° Northwest  Level Estimated
Wed 12:05:32 PM -19.7682 -46.1181 319° Northwest  Level Estimated
Wed 12:06:32 PM -19.6844 -46.1952 319° Northwest  Level Estimated
Wed 12:07:32 PM -19.6004 -46.2722 319° Northwest  Level Estimated
Wed 12:08:32 PM -19.5165 -46.3491 319° Northwest  Level Estimated
Wed 12:09:32 PM -19.4325 -46.4259 319° Northwest  Level Estimated
Wed 12:10:32 PM -19.3485 -46.5026 319° Northwest  Level Estimated
Wed 12:11:32 PM -19.2644 -46.5793 319° Northwest  Level Estimated
Wed 12:12:32 PM -19.1803 -46.6559 319° Northwest  Level Estimated
Wed 12:13:32 PM -19.0962 -46.7324 319° Northwest  Level Estimated
Wed 12:14:32 PM -19.0121 -46.8088 319° Northwest  Level Estimated
Wed 12:15:32 PM -18.9279 -46.8852 319° Northwest  Level Estimated
Wed 12:16:32 PM -18.8437 -46.9614 319° Northwest  Level Estimated
Wed 12:17:32 PM -18.7594 -47.0376 319° Northwest  Level Estimated
Wed 12:18:32 PM -18.6752 -47.1138 319° Northwest  Level Estimated
Wed 12:19:32 PM -18.5909 -47.1898 319° Northwest  Level Estimated
Wed 12:20:32 PM -18.5065 -47.2658 320° Northwest  Level Estimated
Wed 12:21:32 PM -18.4222 -47.3417 320° Northwest  Level Estimated
Wed 12:22:32 PM -18.3378 -47.4175 320° Northwest  Level Estimated
Wed 12:23:32 PM -18.2533 -47.4933 320° Northwest  Level Estimated
Wed 12:24:32 PM -18.1689 -47.5689 320° Northwest  Level Estimated
Wed 12:25:32 PM -18.0844 -47.6445 320° Northwest  Level Estimated
Wed 12:26:32 PM -17.9999 -47.7201 320° Northwest  Level Estimated
Wed 12:27:32 PM -17.9154 -47.7955 320° Northwest  Level Estimated
Wed 12:28:32 PM -17.8308 -47.8709 320° Northwest  Level Estimated
Wed 12:29:32 PM -17.7462 -47.9462 320° Northwest  Level Estimated
Wed 12:30:32 PM -17.6616 -48.0214 320° Northwest  Level Estimated
Wed 12:31:32 PM -17.5769 -48.0966 320° Northwest  Level Estimated
Wed 12:32:32 PM -17.4922 -48.1717 320° Northwest  Level Estimated
Wed 12:33:32 PM -17.4075 -48.2467 320° Northwest  Level Estimated
Wed 12:34:32 PM -17.3228 -48.3217 320° Northwest  Level Estimated
Wed 12:35:32 PM -17.2380 -48.3966 320° Northwest  Level Estimated
Wed 12:36:32 PM -17.1532 -48.4714 320° Northwest  Level Estimated
Wed 12:37:32 PM -17.0684 -48.5462 320° Northwest  Level Estimated
Wed 12:38:32 PM -16.9835 -48.6208 320° Northwest  Level Estimated
Wed 12:39:32 PM -16.8986 -48.6955 320° Northwest  Level Estimated
Wed 12:40:32 PM -16.8137 -48.7700 320° Northwest  Level Estimated
Wed 12:41:32 PM -16.7288 -48.8445 320° Northwest  Level Estimated
Wed 12:42:32 PM -16.6438 -48.9189 320° Northwest  Level Estimated
Wed 12:43:32 PM -16.5588 -48.9933 320° Northwest  Level Estimated
Wed 12:44:32 PM -16.4738 -49.0676 320° Northwest  Level Estimated
Wed 12:45:32 PM -16.3888 -49.1418 320° Northwest  Level Estimated
Wed 12:46:32 PM -16.3037 -49.2159 320° Northwest  Level Estimated
Wed 12:47:32 PM -16.2186 -49.2900 320° Northwest  Level Estimated
Wed 12:48:32 PM -16.1335 -49.3641 320° Northwest  Level Estimated
Wed 12:49:32 PM -16.0484 -49.4380 320° Northwest  Level Estimated
Wed 12:50:32 PM -15.9632 -49.5119 320° Northwest  Level Estimated
Wed 12:51:32 PM -15.8780 -49.5858 320° Northwest  Level Estimated
Wed 12:52:32 PM -15.7928 -49.6595 320° Northwest  Level Estimated
Wed 12:53:32 PM -15.7076 -49.7332 320° Northwest  Level Estimated
Wed 12:54:32 PM -15.6223 -49.8069 320° Northwest  Level Estimated
Wed 12:55:32 PM -15.5370 -49.8805 320° Northwest  Level Estimated
Wed 12:56:32 PM -15.4517 -49.9540 320° Northwest  Level Estimated
Wed 12:57:32 PM -15.3663 -50.0275 320° Northwest  Level Estimated
Wed 12:58:32 PM -15.2810 -50.1009 320° Northwest  Level Estimated
Wed 12:59:32 PM -15.1956 -50.1743 320° Northwest  Level Estimated
Wed 01:00:32 PM -15.1102 -50.2475 320° Northwest  Level Estimated
Wed 01:01:32 PM -15.0247 -50.3208 320° Northwest  Level Estimated
Wed 01:02:32 PM -14.9393 -50.3939 320° Northwest  Level Estimated
Wed 01:03:32 PM -14.8538 -50.4670 320° Northwest  Level Estimated
Wed 01:04:32 PM -14.7683 -50.5401 320° Northwest  Level Estimated
Wed 01:05:32 PM -14.6827 -50.6131 320° Northwest  Level Estimated
Wed 01:06:32 PM -14.5972 -50.6861 320° Northwest  Level Estimated
Wed 01:07:32 PM -14.5116 -50.7589 321° Northwest  Level Estimated
Wed 01:08:32 PM -14.4260 -50.8318 321° Northwest  Level Estimated
Wed 01:09:32 PM -14.3404 -50.9045 321° Northwest  Level Estimated
Wed 01:10:32 PM -14.2548 -50.9773 321° Northwest  Level Estimated
Wed 01:11:32 PM -14.1691 -51.0499 321° Northwest  Level Estimated
Wed 01:12:32 PM -14.0834 -51.1225 321° Northwest  Level Estimated
Wed 01:13:32 PM -13.9977 -51.1951 321° Northwest  Level Estimated
Wed 01:14:32 PM -13.9120 -51.2676 321° Northwest  Level Estimated
Wed 01:15:32 PM -13.8262 -51.3400 321° Northwest  Level Estimated
Wed 01:16:32 PM -13.7404 -51.4124 321° Northwest  Level Estimated
Wed 01:17:32 PM -13.6547 -51.4848 321° Northwest  Level Estimated
Wed 01:18:32 PM -13.5688 -51.5571 321° Northwest  Level Estimated
Wed 01:19:32 PM -13.4830 -51.6293 321° Northwest  Level Estimated
Wed 01:20:32 PM -13.3972 -51.7015 321° Northwest  Level Estimated
Wed 01:21:32 PM -13.3113 -51.7736 321° Northwest  Level Estimated
Wed 01:22:32 PM -13.2254 -51.8457 321° Northwest  Level Estimated
Wed 01:23:32 PM -13.1395 -51.9177 321° Northwest  Level Estimated
Wed 01:24:32 PM -13.0535 -51.9897 321° Northwest  Level Estimated
Wed 01:25:32 PM -12.9676 -52.0616 321° Northwest  Level Estimated
Wed 01:26:32 PM -12.8816 -52.1335 321° Northwest  Level Estimated
Wed 01:27:32 PM -12.7956 -52.2053 321° Northwest  Level Estimated
Wed 01:28:32 PM -12.7096 -52.2771 321° Northwest  Level Estimated
Wed 01:29:32 PM -12.6236 -52.3488 321° Northwest  Level Estimated
Wed 01:30:32 PM -12.5375 -52.4205 321° Northwest  Level Estimated
Wed 01:31:32 PM -12.4514 -52.4922 321° Northwest  Level Estimated
Wed 01:32:32 PM -12.3653 -52.5638 321° Northwest  Level Estimated
Wed 01:33:32 PM -12.2792 -52.6353 321° Northwest  Level Estimated
Wed 01:34:32 PM -12.1931 -52.7068 321° Northwest  Level Estimated
Wed 01:35:32 PM -12.1069 -52.7782 321° Northwest  Level Estimated
Wed 01:36:32 PM -12.0208 -52.8496 321° Northwest  Level Estimated
Wed 01:37:32 PM -11.9346 -52.9210 321° Northwest  Level Estimated
Wed 01:38:32 PM -11.8484 -52.9923 321° Northwest  Level Estimated
Wed 01:39:32 PM -11.7622 -53.0636 321° Northwest  Level Estimated
Wed 01:40:32 PM -11.6760 -53.1348 321° Northwest  Level Estimated
Wed 01:41:32 PM -11.5897 -53.2060 321° Northwest  Level Estimated
Wed 01:42:32 PM -11.5034 -53.2771 321° Northwest  Level Estimated
Wed 01:43:32 PM -11.4171 -53.3482 321° Northwest  Level Estimated
Wed 01:44:32 PM -11.3308 -53.4192 321° Northwest  Level Estimated
Wed 01:45:32 PM -11.2445 -53.4902 321° Northwest  Level Estimated
Wed 01:46:32 PM -11.1582 -53.5612 321° Northwest  Level Estimated
Wed 01:47:32 PM -11.0718 -53.6321 321° Northwest  Level Estimated
Wed 01:48:32 PM -10.9854 -53.7030 321° Northwest  Level Estimated
Wed 01:49:32 PM -10.8990 -53.7738 321° Northwest  Level Estimated
Wed 01:50:32 PM -10.8126 -53.8446 321° Northwest  Level Estimated
Wed 01:51:32 PM -10.7262 -53.9154 321° Northwest  Level Estimated
Wed 01:52:32 PM -10.6398 -53.9861 321° Northwest  Level Estimated
Wed 01:53:32 PM -10.5533 -54.0568 321° Northwest  Level Estimated
Wed 01:54:32 PM -10.4669 -54.1274 321° Northwest  Level Estimated
Wed 01:55:32 PM -10.3804 -54.1980 321° Northwest  Level Estimated
Wed 01:56:32 PM -10.2939 -54.2685 321° Northwest  Level Estimated
Wed 01:57:32 PM -10.2074 -54.3391 321° Northwest  Level Estimated
Wed 01:58:32 PM -10.1208 -54.4095 321° Northwest  Level Estimated
Wed 01:59:32 PM -10.0343 -54.4800 321° Northwest  Level Estimated
Wed 02:00:32 PM -9.9477 -54.5504 321° Northwest  Level Estimated
Wed 02:01:32 PM -9.8612 -54.6207 321° Northwest  Level Estimated
Wed 02:02:32 PM -9.7746 -54.6911 321° Northwest  Level Estimated
Wed 02:03:32 PM -9.6880 -54.7613 321° Northwest  Level Estimated
Wed 02:04:32 PM -9.6014 -54.8316 321° Northwest  Level Estimated
Wed 02:05:32 PM -9.5147 -54.9018 321° Northwest  Level Estimated
Wed 02:06:32 PM -9.4281 -54.9720 321° Northwest  Level Estimated
Wed 02:07:32 PM -9.3414 -55.0421 321° Northwest  Level Estimated
Wed 02:08:32 PM -9.2548 -55.1123 321° Northwest  Level Estimated
Wed 02:09:32 PM -9.1681 -55.1823 321° Northwest  Level Estimated
Wed 02:10:32 PM -9.0814 -55.2524 321° Northwest  Level Estimated
Wed 02:11:32 PM -8.9946 -55.3224 321° Northwest  Level Estimated
Wed 02:12:32 PM -8.9079 -55.3924 321° Northwest  Level Estimated
Wed 02:13:32 PM -8.8212 -55.4623 321° Northwest  Level Estimated
Wed 02:14:32 PM -8.7344 -55.5322 321° Northwest  Level Estimated
Wed 02:15:32 PM -8.6477 -55.6021 321° Northwest  Level Estimated
Wed 02:16:32 PM -8.5609 -55.6720 321° Northwest  Level Estimated
Wed 02:17:32 PM -8.4741 -55.7418 322° Northwest  Level Estimated
Wed 02:18:32 PM -8.3873 -55.8116 322° Northwest  Level Estimated
Wed 02:19:32 PM -8.3005 -55.8813 322° Northwest  Level Estimated
Wed 02:20:32 PM -8.2136 -55.9510 322° Northwest  Level Estimated
Wed 02:21:32 PM -8.1268 -56.0207 322° Northwest  Level Estimated
Wed 02:22:32 PM -8.0400 -56.0904 322° Northwest  Level Estimated
Wed 02:23:32 PM -7.9531 -56.1600 322° Northwest  Level Estimated
Wed 02:24:32 PM -7.8662 -56.2296 322° Northwest  Level Estimated
Wed 02:25:32 PM -7.7793 -56.2992 322° Northwest  Level Estimated
Wed 02:26:32 PM -7.6924 -56.3687 322° Northwest  Level Estimated
Wed 02:27:32 PM -7.6055 -56.4382 322° Northwest  Level Estimated
Wed 02:28:32 PM -7.5186 -56.5077 322° Northwest  Level Estimated
Wed 02:29:32 PM -7.4317 -56.5772 322° Northwest  Level Estimated
Wed 02:30:32 PM -7.3447 -56.6466 322° Northwest  Level Estimated
Wed 02:31:32 PM -7.2578 -56.7160 322° Northwest  Level Estimated
Wed 02:32:32 PM -7.1708 -56.7854 322° Northwest  Level Estimated
Wed 02:33:32 PM -7.0838 -56.8547 322° Northwest  Level Estimated
Wed 02:34:32 PM -6.9969 -56.9240 322° Northwest  Level Estimated
Wed 02:35:32 PM -6.9099 -56.9934 322° Northwest  Level Estimated
Wed 02:36:32 PM -6.8229 -57.0626 322° Northwest  Level Estimated
Wed 02:37:32 PM -6.7359 -57.1319 322° Northwest  Level Estimated
Wed 02:38:32 PM -6.6488 -57.2011 322° Northwest  Level Estimated
Wed 02:39:32 PM -6.5618 -57.2703 322° Northwest  Level Estimated
Wed 02:40:32 PM -6.4748 -57.3395 322° Northwest  Level Estimated
Wed 02:41:32 PM -6.3877 -57.4086 322° Northwest  Level Estimated
Wed 02:42:32 PM -6.3007 -57.4777 322° Northwest  Level Estimated
Wed 02:43:32 PM -6.2136 -57.5468 322° Northwest  Level Estimated
Wed 02:44:32 PM -6.1265 -57.6159 322° Northwest  Level Estimated
Wed 02:45:32 PM -6.0394 -57.6850 322° Northwest  Level Estimated
Wed 02:46:32 PM -5.9523 -57.7540 322° Northwest  Level Estimated
Wed 02:47:32 PM -5.8652 -57.8230 322° Northwest  Level Estimated
Wed 02:48:32 PM -5.7781 -57.8920 322° Northwest  Level Estimated
Wed 02:49:32 PM -5.6910 -57.9610 322° Northwest  Level Estimated
Wed 02:50:32 PM -5.6039 -58.0299 322° Northwest  Level Estimated
Wed 02:51:32 PM -5.5167 -58.0989 322° Northwest  Level Estimated
Wed 02:52:32 PM -5.4296 -58.1678 322° Northwest  Level Estimated
Wed 02:53:32 PM -5.3424 -58.2367 322° Northwest  Level Estimated
Wed 02:54:32 PM -5.2553 -58.3055 322° Northwest  Level Estimated
Wed 02:55:32 PM -5.1681 -58.3744 322° Northwest  Level Estimated
Wed 02:56:32 PM -5.0809 -58.4432 322° Northwest  Level Estimated
Wed 02:57:32 PM -4.9937 -58.5120 322° Northwest  Level Estimated
Wed 02:58:32 PM -4.9065 -58.5808 322° Northwest  Level Estimated
Wed 02:59:32 PM -4.8193 -58.6496 322° Northwest  Level Estimated
Wed 03:00:32 PM -4.7321 -58.7184 322° Northwest  Level Estimated
Wed 03:01:32 PM -4.6449 -58.7871 322° Northwest  Level Estimated
Wed 03:02:32 PM -4.5577 -58.8558 322° Northwest  Level Estimated
Wed 03:03:32 PM -4.4705 -58.9245 322° Northwest  Level Estimated
Wed 03:04:32 PM -4.3833 -58.9932 322° Northwest  Level Estimated
Wed 03:05:32 PM -4.2960 -59.0619 322° Northwest  Level Estimated
Wed 03:06:32 PM -4.2088 -59.1306 322° Northwest  Level Estimated
Wed 03:07:32 PM -4.1215 -59.1992 322° Northwest  Level Estimated
Wed 03:08:32 PM -4.0343 -59.2679 322° Northwest  Level Estimated
Wed 03:09:32 PM -3.9470 -59.3365 322° Northwest  Level Estimated
Wed 03:10:32 PM -3.8597 -59.4051 322° Northwest  Level Estimated
Wed 03:11:32 PM -3.7725 -59.4737 322° Northwest  Level Estimated
Wed 03:12:32 PM -3.6852 -59.5422 322° Northwest  Level Estimated
Wed 03:13:32 PM -3.5979 -59.6108 322° Northwest  Level Estimated
Wed 03:14:32 PM -3.5106 -59.6794 322° Northwest  Level Estimated
Wed 03:15:32 PM -3.4233 -59.7479 322° Northwest  Level Estimated
Wed 03:16:32 PM -3.3360 -59.8164 322° Northwest  Level Estimated
Wed 03:17:32 PM -3.2487 -59.8849 322° Northwest  Level Estimated
Wed 03:18:32 PM -3.1614 -59.9534 322° Northwest  Level Estimated
Wed 03:19:32 PM -3.0741 -60.0219 322° Northwest  Level Estimated
Wed 03:20:32 PM -2.9868 -60.0904 142° Southeast  Level Estimated
Wed 03:21:32 PM -3.0741 -60.0219 322° Northwest  Level Estimated
Wed 03:22:32 PM -2.9868 -60.0904 142° Southeast  Level Estimated
Wed 03:23:32 PM -3.0741 -60.0219 322° Northwest  Level Estimated
Wed 03:24:32 PM -2.9868 -60.0904 322° Northwest  Level Estimated

Login

Don't have an account? Register now (free) for customized features, flight alerts, and more!